sensor_id;sensor_type;location;lat;lon;timestamp;P1;durP1;ratioP1;P2;durP2;ratioP2
47896;SDS011;39629;51.400;5.494;2023-05-29T00:02:38;7.00;;;2.95;;
47896;SDS011;39629;51.400;5.494;2023-05-29T00:07:44;6.35;;;2.35;;
47896;SDS011;39629;51.400;5.494;2023-05-29T00:12:47;10.50;;;3.15;;
47896;SDS011;39629;51.400;5.494;2023-05-29T00:17:48;7.32;;;2.80;;
47896;SDS011;39629;51.400;5.494;2023-05-29T00:22:50;10.70;;;3.10;;
47896;SDS011;39629;51.400;5.494;2023-05-29T00:27:53;8.52;;;3.20;;
47896;SDS011;39629;51.400;5.494;2023-05-29T00:32:55;5.35;;;2.65;;
47896;SDS011;39629;51.400;5.494;2023-05-29T00:37:57;8.85;;;2.83;;
47896;SDS011;39629;51.400;5.494;2023-05-29T00:43:00;6.22;;;2.67;;
47896;SDS011;39629;51.400;5.494;2023-05-29T00:48:02;8.27;;;2.70;;
47896;SDS011;39629;51.400;5.494;2023-05-29T00:53:04;6.80;;;2.10;;
47896;SDS011;39629;51.400;5.494;2023-05-29T00:58:09;6.40;;;2.33;;
47896;SDS011;39629;51.400;5.494;2023-05-29T01:03:10;7.32;;;2.58;;
47896;SDS011;39629;51.400;5.494;2023-05-29T01:08:15;6.45;;;2.08;;
47896;SDS011;39629;51.400;5.494;2023-05-29T01:13:18;11.10;;;2.10;;
47896;SDS011;39629;51.400;5.494;2023-05-29T01:18:25;7.05;;;1.85;;
47896;SDS011;39629;51.400;5.494;2023-05-29T01:29:06;9.80;;;1.90;;
47896;SDS011;39629;51.400;5.494;2023-05-29T01:34:08;9.85;;;1.80;;
47896;SDS011;39629;51.400;5.494;2023-05-29T01:39:10;8.50;;;1.60;;
47896;SDS011;39629;51.400;5.494;2023-05-29T01:44:13;8.73;;;1.52;;
47896;SDS011;39629;51.400;5.494;2023-05-29T01:49:16;12.45;;;1.60;;
47896;SDS011;39629;51.400;5.494;2023-05-29T01:54:18;9.35;;;1.95;;
47896;SDS011;39629;51.400;5.494;2023-05-29T01:59:21;7.57;;;1.70;;
47896;SDS011;39629;51.400;5.494;2023-05-29T02:04:23;5.45;;;1.33;;
47896;SDS011;39629;51.400;5.494;2023-05-29T02:09:25;7.57;;;1.23;;
47896;SDS011;39629;51.400;5.494;2023-05-29T02:14:28;10.65;;;1.55;;
47896;SDS011;39629;51.400;5.494;2023-05-29T02:19:32;7.32;;;1.55;;
47896;SDS011;39629;51.400;5.494;2023-05-29T02:24:34;6.65;;;1.42;;
47896;SDS011;39629;51.400;5.494;2023-05-29T02:29:37;8.05;;;1.20;;
47896;SDS011;39629;51.400;5.494;2023-05-29T02:34:39;9.05;;;1.30;;
47896;SDS011;39629;51.400;5.494;2023-05-29T02:39:40;7.28;;;1.60;;
47896;SDS011;39629;51.400;5.494;2023-05-29T02:44:43;5.70;;;1.40;;
47896;SDS011;39629;51.400;5.494;2023-05-29T02:49:45;6.07;;;1.65;;
47896;SDS011;39629;51.400;5.494;2023-05-29T02:54:46;6.35;;;1.52;;
47896;SDS011;39629;51.400;5.494;2023-05-29T02:59:49;7.53;;;1.40;;
47896;SDS011;39629;51.400;5.494;2023-05-29T03:04:52;13.23;;;1.80;;
47896;SDS011;39629;51.400;5.494;2023-05-29T03:09:54;6.22;;;1.42;;
47896;SDS011;39629;51.400;5.494;2023-05-29T03:14:56;6.82;;;1.50;;
47896;SDS011;39629;51.400;5.494;2023-05-29T03:25:01;9.45;;;1.50;;
47896;SDS011;39629;51.400;5.494;2023-05-29T03:30:06;6.10;;;1.20;;
47896;SDS011;39629;51.400;5.494;2023-05-29T03:35:10;8.77;;;1.73;;
47896;SDS011;39629;51.400;5.494;2023-05-29T03:40:15;11.65;;;1.65;;
47896;SDS011;39629;51.400;5.494;2023-05-29T03:45:18;9.65;;;1.40;;
47896;SDS011;39629;51.400;5.494;2023-05-29T03:50:20;11.30;;;2.20;;
47896;SDS011;39629;51.400;5.494;2023-05-29T03:55:22;9.65;;;1.48;;
47896;SDS011;39629;51.400;5.494;2023-05-29T04:00:25;6.78;;;1.48;;
47896;SDS011;39629;51.400;5.494;2023-05-29T04:05:30;10.88;;;2.25;;
47896;SDS011;39629;51.400;5.494;2023-05-29T04:10:31;12.45;;;1.73;;
47896;SDS011;39629;51.400;5.494;2023-05-29T04:15:35;7.45;;;1.60;;
47896;SDS011;39629;51.400;5.494;2023-05-29T04:20:37;10.07;;;1.80;;
47896;SDS011;39629;51.400;5.494;2023-05-29T04:25:39;9.15;;;1.60;;
47896;SDS011;39629;51.400;5.494;2023-05-29T04:30:42;8.68;;;1.60;;
47896;SDS011;39629;51.400;5.494;2023-05-29T04:35:43;12.35;;;1.73;;
47896;SDS011;39629;51.400;5.494;2023-05-29T04:40:46;7.55;;;1.20;;
47896;SDS011;39629;51.400;5.494;2023-05-29T04:45:53;13.00;;;1.83;;
47896;SDS011;39629;51.400;5.494;2023-05-29T04:50:57;9.77;;;1.48;;
47896;SDS011;39629;51.400;5.494;2023-05-29T04:56:00;7.63;;;1.40;;
47896;SDS011;39629;51.400;5.494;2023-05-29T05:01:03;16.25;;;2.30;;
47896;SDS011;39629;51.400;5.494;2023-05-29T05:06:06;8.63;;;1.45;;
47896;SDS011;39629;51.400;5.494;2023-05-29T05:11:08;9.65;;;1.65;;
47896;SDS011;39629;51.400;5.494;2023-05-29T05:16:11;8.30;;;1.52;;
47896;SDS011;39629;51.400;5.494;2023-05-29T05:21:14;11.98;;;1.52;;
47896;SDS011;39629;51.400;5.494;2023-05-29T05:26:16;10.40;;;1.58;;
47896;SDS011;39629;51.400;5.494;2023-05-29T05:31:19;7.85;;;1.45;;
47896;SDS011;39629;51.400;5.494;2023-05-29T05:36:21;6.32;;;1.50;;
47896;SDS011;39629;51.400;5.494;2023-05-29T05:41:28;14.27;;;1.70;;
47896;SDS011;39629;51.400;5.494;2023-05-29T05:46:31;6.88;;;1.70;;
47896;SDS011;39629;51.400;5.494;2023-05-29T05:51:33;7.20;;;1.45;;
47896;SDS011;39629;51.400;5.494;2023-05-29T05:56:35;7.28;;;1.48;;
47896;SDS011;39629;51.400;5.494;2023-05-29T06:01:38;9.65;;;1.20;;
47896;SDS011;39629;51.400;5.494;2023-05-29T06:06:42;10.05;;;1.75;;
47896;SDS011;39629;51.400;5.494;2023-05-29T06:11:43;8.68;;;1.42;;
47896;SDS011;39629;51.400;5.494;2023-05-29T06:16:46;5.45;;;1.50;;
47896;SDS011;39629;51.400;5.494;2023-05-29T06:21:48;9.35;;;1.70;;
47896;SDS011;39629;51.400;5.494;2023-05-29T06:26:50;11.07;;;1.60;;
47896;SDS011;39629;51.400;5.494;2023-05-29T06:31:53;9.05;;;1.25;;
47896;SDS011;39629;51.400;5.494;2023-05-29T06:36:55;7.05;;;1.50;;
47896;SDS011;39629;51.400;5.494;2023-05-29T06:41:57;6.90;;;1.20;;
47896;SDS011;39629;51.400;5.494;2023-05-29T06:47:00;10.05;;;1.70;;
47896;SDS011;39629;51.400;5.494;2023-05-29T06:52:02;8.43;;;1.53;;
47896;SDS011;39629;51.400;5.494;2023-05-29T06:57:29;10.13;;;1.52;;
47896;SDS011;39629;51.400;5.494;2023-05-29T07:02:32;7.10;;;1.60;;
47896;SDS011;39629;51.400;5.494;2023-05-29T07:07:34;8.07;;;1.77;;
47896;SDS011;39629;51.400;5.494;2023-05-29T07:12:36;7.45;;;1.50;;
47896;SDS011;39629;51.400;5.494;2023-05-29T07:17:39;6.05;;;1.60;;
47896;SDS011;39629;51.400;5.494;2023-05-29T07:27:55;6.63;;;1.60;;
47896;SDS011;39629;51.400;5.494;2023-05-29T07:32:58;6.80;;;1.30;;
47896;SDS011;39629;51.400;5.494;2023-05-29T07:38:00;9.10;;;1.20;;
47896;SDS011;39629;51.400;5.494;2023-05-29T07:43:02;3.88;;;1.00;;
47896;SDS011;39629;51.400;5.494;2023-05-29T07:48:19;9.07;;;1.63;;
47896;SDS011;39629;51.400;5.494;2023-05-29T07:53:21;10.10;;;1.67;;
47896;SDS011;39629;51.400;5.494;2023-05-29T07:58:24;8.90;;;1.25;;
47896;SDS011;39629;51.400;5.494;2023-05-29T08:03:27;9.88;;;1.42;;
47896;SDS011;39629;51.400;5.494;2023-05-29T08:08:47;7.78;;;1.50;;
47896;SDS011;39629;51.400;5.494;2023-05-29T08:13:49;9.23;;;1.40;;
47896;SDS011;39629;51.400;5.494;2023-05-29T08:18:53;8.43;;;1.45;;
47896;SDS011;39629;51.400;5.494;2023-05-29T08:23:56;5.80;;;1.40;;
47896;SDS011;39629;51.400;5.494;2023-05-29T08:28:57;4.50;;;1.02;;
47896;SDS011;39629;51.400;5.494;2023-05-29T08:34:00;6.47;;;1.38;;
47896;SDS011;39629;51.400;5.494;2023-05-29T08:39:02;7.25;;;1.33;;
47896;SDS011;39629;51.400;5.494;2023-05-29T08:44:03;6.13;;;1.63;;
47896;SDS011;39629;51.400;5.494;2023-05-29T08:49:09;4.70;;;1.40;;
47896;SDS011;39629;51.400;5.494;2023-05-29T08:54:17;5.57;;;1.25;;
47896;SDS011;39629;51.400;5.494;2023-05-29T08:59:19;7.13;;;1.17;;
47896;SDS011;39629;51.400;5.494;2023-05-29T09:04:23;8.80;;;1.60;;
47896;SDS011;39629;51.400;5.494;2023-05-29T09:09:25;6.78;;;1.25;;
47896;SDS011;39629;51.400;5.494;2023-05-29T09:14:34;4.05;;;0.93;;
47896;SDS011;39629;51.400;5.494;2023-05-29T09:19:38;6.45;;;1.55;;
47896;SDS011;39629;51.400;5.494;2023-05-29T09:24:41;7.60;;;1.30;;
47896;SDS011;39629;51.400;5.494;2023-05-29T09:29:44;6.10;;;1.10;;
47896;SDS011;39629;51.400;5.494;2023-05-29T09:34:48;6.28;;;1.45;;
47896;SDS011;39629;51.400;5.494;2023-05-29T09:39:54;4.57;;;1.50;;
47896;SDS011;39629;51.400;5.494;2023-05-29T09:44:56;7.65;;;1.30;;
47896;SDS011;39629;51.400;5.494;2023-05-29T09:49:59;6.50;;;1.27;;
47896;SDS011;39629;51.400;5.494;2023-05-29T10:00:03;7.47;;;1.33;;
47896;SDS011;39629;51.400;5.494;2023-05-29T10:05:14;6.43;;;1.15;;
47896;SDS011;39629;51.400;5.494;2023-05-29T10:15:18;9.20;;;1.20;;
47896;SDS011;39629;51.400;5.494;2023-05-29T10:20:22;5.85;;;1.58;;
47896;SDS011;39629;51.400;5.494;2023-05-29T10:25:25;4.78;;;1.15;;
47896;SDS011;39629;51.400;5.494;2023-05-29T10:30:36;4.47;;;1.00;;
47896;SDS011;39629;51.400;5.494;2023-05-29T10:35:45;4.57;;;1.00;;
47896;SDS011;39629;51.400;5.494;2023-05-29T10:40:49;4.18;;;1.08;;
47896;SDS011;39629;51.400;5.494;2023-05-29T10:45:50;4.55;;;1.30;;
47896;SDS011;39629;51.400;5.494;2023-05-29T10:50:53;6.70;;;1.30;;
47896;SDS011;39629;51.400;5.494;2023-05-29T10:55:56;4.80;;;1.02;;
47896;SDS011;39629;51.400;5.494;2023-05-29T11:01:01;4.07;;;1.30;;
47896;SDS011;39629;51.400;5.494;2023-05-29T11:06:05;5.82;;;1.50;;
47896;SDS011;39629;51.400;5.494;2023-05-29T11:11:11;5.05;;;1.20;;
47896;SDS011;39629;51.400;5.494;2023-05-29T11:16:13;4.93;;;1.33;;
47896;SDS011;39629;51.400;5.494;2023-05-29T11:21:31;4.97;;;1.55;;
47896;SDS011;39629;51.400;5.494;2023-05-29T11:26:36;5.72;;;1.20;;
47896;SDS011;39629;51.400;5.494;2023-05-29T11:31:39;3.42;;;1.20;;
47896;SDS011;39629;51.400;5.494;2023-05-29T11:41:49;6.45;;;1.40;;
47896;SDS011;39629;51.400;5.494;2023-05-29T11:46:59;6.82;;;1.30;;
47896;SDS011;39629;51.400;5.494;2023-05-29T11:52:07;6.38;;;1.38;;
47896;SDS011;39629;51.400;5.494;2023-05-29T11:57:09;3.42;;;1.10;;
47896;SDS011;39629;51.400;5.494;2023-05-29T12:02:11;4.20;;;1.27;;
47896;SDS011;39629;51.400;5.494;2023-05-29T12:07:20;4.10;;;1.50;;
47896;SDS011;39629;51.400;5.494;2023-05-29T12:12:21;3.67;;;1.33;;
47896;SDS011;39629;51.400;5.494;2023-05-29T12:17:23;5.28;;;1.23;;
47896;SDS011;39629;51.400;5.494;2023-05-29T12:22:33;4.57;;;1.30;;
47896;SDS011;39629;51.400;5.494;2023-05-29T12:27:37;5.05;;;1.50;;
47896;SDS011;39629;51.400;5.494;2023-05-29T12:32:43;4.03;;;1.13;;
47896;SDS011;39629;51.400;5.494;2023-05-29T12:42:53;6.25;;;1.30;;
47896;SDS011;39629;51.400;5.494;2023-05-29T12:47:56;4.35;;;1.23;;
47896;SDS011;39629;51.400;5.494;2023-05-29T12:53:01;4.13;;;1.17;;
47896;SDS011;39629;51.400;5.494;2023-05-29T12:58:04;4.25;;;1.20;;
47896;SDS011;39629;51.400;5.494;2023-05-29T13:03:07;5.90;;;1.15;;
47896;SDS011;39629;51.400;5.494;2023-05-29T13:08:12;6.72;;;1.35;;
47896;SDS011;39629;51.400;5.494;2023-05-29T13:13:13;5.55;;;1.13;;
47896;SDS011;39629;51.400;5.494;2023-05-29T13:18:15;4.15;;;1.20;;
47896;SDS011;39629;51.400;5.494;2023-05-29T13:23:18;4.68;;;1.40;;
47896;SDS011;39629;51.400;5.494;2023-05-29T13:33:21;4.45;;;1.25;;
47896;SDS011;39629;51.400;5.494;2023-05-29T13:38:24;3.78;;;1.30;;
47896;SDS011;39629;51.400;5.494;2023-05-29T13:48:27;4.70;;;1.33;;
47896;SDS011;39629;51.400;5.494;2023-05-29T13:53:30;5.25;;;1.25;;
47896;SDS011;39629;51.400;5.494;2023-05-29T14:03:33;4.28;;;1.40;;
47896;SDS011;39629;51.400;5.494;2023-05-29T14:08:36;3.28;;;1.20;;
47896;SDS011;39629;51.400;5.494;2023-05-29T14:18:39;3.53;;;1.27;;
47896;SDS011;39629;51.400;5.494;2023-05-29T14:23:43;4.47;;;1.27;;
47896;SDS011;39629;51.400;5.494;2023-05-29T14:28:44;4.13;;;1.42;;
47896;SDS011;39629;51.400;5.494;2023-05-29T14:33:46;5.03;;;1.40;;
47896;SDS011;39629;51.400;5.494;2023-05-29T14:38:49;5.68;;;1.42;;
47896;SDS011;39629;51.400;5.494;2023-05-29T14:43:50;5.93;;;1.63;;
47896;SDS011;39629;51.400;5.494;2023-05-29T14:48:52;7.47;;;1.50;;
47896;SDS011;39629;51.400;5.494;2023-05-29T14:53:55;6.70;;;1.60;;
47896;SDS011;39629;51.400;5.494;2023-05-29T14:58:57;4.45;;;1.33;;
47896;SDS011;39629;51.400;5.494;2023-05-29T15:03:58;5.97;;;1.40;;
47896;SDS011;39629;51.400;5.494;2023-05-29T15:09:01;5.50;;;1.40;;
47896;SDS011;39629;51.400;5.494;2023-05-29T15:19:04;6.15;;;1.52;;
47896;SDS011;39629;51.400;5.494;2023-05-29T15:24:08;6.45;;;1.77;;
47896;SDS011;39629;51.400;5.494;2023-05-29T15:29:09;8.73;;;1.60;;
47896;SDS011;39629;51.400;5.494;2023-05-29T15:34:11;6.72;;;1.40;;
47896;SDS011;39629;51.400;5.494;2023-05-29T15:39:14;3.38;;;1.20;;
47896;SDS011;39629;51.400;5.494;2023-05-29T15:49:17;4.93;;;1.38;;
47896;SDS011;39629;51.400;5.494;2023-05-29T15:54:20;4.95;;;1.80;;
47896;SDS011;39629;51.400;5.494;2023-05-29T15:59:22;4.15;;;1.17;;
47896;SDS011;39629;51.400;5.494;2023-05-29T16:04:23;4.25;;;1.15;;
47896;SDS011;39629;51.400;5.494;2023-05-29T16:09:26;6.00;;;1.35;;
47896;SDS011;39629;51.400;5.494;2023-05-29T16:19:29;6.05;;;1.50;;
47896;SDS011;39629;51.400;5.494;2023-05-29T16:24:32;6.20;;;1.30;;
47896;SDS011;39629;51.400;5.494;2023-05-29T16:29:34;7.68;;;1.75;;
47896;SDS011;39629;51.400;5.494;2023-05-29T16:34:36;10.68;;;1.80;;
47896;SDS011;39629;51.400;5.494;2023-05-29T16:39:39;8.25;;;1.73;;
47896;SDS011;39629;51.400;5.494;2023-05-29T16:49:43;5.20;;;1.60;;
47896;SDS011;39629;51.400;5.494;2023-05-29T16:54:46;6.47;;;1.35;;
47896;SDS011;39629;51.400;5.494;2023-05-29T16:59:48;4.30;;;1.35;;
47896;SDS011;39629;51.400;5.494;2023-05-29T17:04:50;4.65;;;1.27;;
47896;SDS011;39629;51.400;5.494;2023-05-29T17:09:52;9.95;;;1.27;;
47896;SDS011;39629;51.400;5.494;2023-05-29T17:14:54;5.90;;;1.50;;
47896;SDS011;39629;51.400;5.494;2023-05-29T17:19:55;7.32;;;1.73;;
47896;SDS011;39629;51.400;5.494;2023-05-29T17:24:58;7.47;;;1.30;;
47896;SDS011;39629;51.400;5.494;2023-05-29T17:30:02;6.80;;;1.60;;
47896;SDS011;39629;51.400;5.494;2023-05-29T17:35:05;5.90;;;1.30;;
47896;SDS011;39629;51.400;5.494;2023-05-29T17:40:08;4.75;;;1.10;;
47896;SDS011;39629;51.400;5.494;2023-05-29T17:45:11;7.28;;;1.48;;
47896;SDS011;39629;51.400;5.494;2023-05-29T17:50:14;6.43;;;1.40;;
47896;SDS011;39629;51.400;5.494;2023-05-29T17:55:17;4.32;;;1.40;;
47896;SDS011;39629;51.400;5.494;2023-05-29T18:00:19;6.53;;;1.67;;
47896;SDS011;39629;51.400;5.494;2023-05-29T18:05:21;5.88;;;1.40;;
47896;SDS011;39629;51.400;5.494;2023-05-29T18:10:24;5.68;;;1.35;;
47896;SDS011;39629;51.400;5.494;2023-05-29T18:15:25;5.33;;;1.67;;
47896;SDS011;39629;51.400;5.494;2023-05-29T18:20:27;5.78;;;1.50;;
47896;SDS011;39629;51.400;5.494;2023-05-29T18:25:30;5.55;;;1.13;;
47896;SDS011;39629;51.400;5.494;2023-05-29T18:30:33;4.47;;;1.20;;
47896;SDS011;39629;51.400;5.494;2023-05-29T18:35:35;5.05;;;1.10;;
47896;SDS011;39629;51.400;5.494;2023-05-29T18:40:38;6.07;;;1.30;;
47896;SDS011;39629;51.400;5.494;2023-05-29T18:45:42;11.77;;;1.70;;
47896;SDS011;39629;51.400;5.494;2023-05-29T18:50:43;7.57;;;1.38;;
47896;SDS011;39629;51.400;5.494;2023-05-29T18:55:46;5.07;;;1.33;;
47896;SDS011;39629;51.400;5.494;2023-05-29T19:00:48;5.20;;;1.65;;
47896;SDS011;39629;51.400;5.494;2023-05-29T19:05:50;4.95;;;1.30;;
47896;SDS011;39629;51.400;5.494;2023-05-29T19:10:52;6.00;;;1.40;;
47896;SDS011;39629;51.400;5.494;2023-05-29T19:15:54;4.72;;;1.35;;
47896;SDS011;39629;51.400;5.494;2023-05-29T19:20:56;9.10;;;1.40;;
47896;SDS011;39629;51.400;5.494;2023-05-29T19:25:59;5.88;;;1.33;;
47896;SDS011;39629;51.400;5.494;2023-05-29T19:31:00;5.47;;;1.10;;
47896;SDS011;39629;51.400;5.494;2023-05-29T19:36:02;7.20;;;1.50;;
47896;SDS011;39629;51.400;5.494;2023-05-29T19:41:05;4.40;;;1.15;;
47896;SDS011;39629;51.400;5.494;2023-05-29T19:46:07;7.53;;;1.55;;
47896;SDS011;39629;51.400;5.494;2023-05-29T19:51:08;5.90;;;1.20;;
47896;SDS011;39629;51.400;5.494;2023-05-29T19:56:12;5.90;;;1.40;;
47896;SDS011;39629;51.400;5.494;2023-05-29T20:01:14;7.45;;;1.33;;
47896;SDS011;39629;51.400;5.494;2023-05-29T20:06:15;4.28;;;1.27;;
47896;SDS011;39629;51.400;5.494;2023-05-29T20:11:19;6.75;;;1.20;;
47896;SDS011;39629;51.400;5.494;2023-05-29T20:16:21;6.73;;;1.13;;
47896;SDS011;39629;51.400;5.494;2023-05-29T20:21:23;6.63;;;1.50;;
47896;SDS011;39629;51.400;5.494;2023-05-29T20:26:26;2.95;;;1.02;;
47896;SDS011;39629;51.400;5.494;2023-05-29T20:31:28;5.63;;;1.00;;
47896;SDS011;39629;51.400;5.494;2023-05-29T20:36:29;9.07;;;1.83;;
47896;SDS011;39629;51.400;5.494;2023-05-29T20:46:38;6.73;;;1.10;;
47896;SDS011;39629;51.400;5.494;2023-05-29T20:51:40;3.70;;;0.98;;
47896;SDS011;39629;51.400;5.494;2023-05-29T20:56:43;5.90;;;1.27;;
47896;SDS011;39629;51.400;5.494;2023-05-29T21:01:46;7.55;;;1.25;;
47896;SDS011;39629;51.400;5.494;2023-05-29T21:06:48;4.75;;;1.20;;
47896;SDS011;39629;51.400;5.494;2023-05-29T21:11:51;5.80;;;1.40;;
47896;SDS011;39629;51.400;5.494;2023-05-29T21:16:52;8.07;;;1.10;;
47896;SDS011;39629;51.400;5.494;2023-05-29T21:21:54;5.55;;;1.20;;
47896;SDS011;39629;51.400;5.494;2023-05-29T21:26:58;5.88;;;1.17;;
47896;SDS011;39629;51.400;5.494;2023-05-29T21:32:00;5.55;;;1.10;;
47896;SDS011;39629;51.400;5.494;2023-05-29T21:37:03;6.85;;;1.42;;
47896;SDS011;39629;51.400;5.494;2023-05-29T21:42:06;7.07;;;1.17;;
47896;SDS011;39629;51.400;5.494;2023-05-29T21:47:09;8.30;;;1.17;;
47896;SDS011;39629;51.400;5.494;2023-05-29T21:52:10;4.65;;;1.08;;
47896;SDS011;39629;51.400;5.494;2023-05-29T21:57:14;4.30;;;1.17;;
47896;SDS011;39629;51.400;5.494;2023-05-29T22:02:16;5.25;;;1.27;;
47896;SDS011;39629;51.400;5.494;2023-05-29T22:07:18;5.45;;;1.20;;
47896;SDS011;39629;51.400;5.494;2023-05-29T22:12:23;5.18;;;1.20;;
47896;SDS011;39629;51.400;5.494;2023-05-29T22:17:25;5.60;;;1.20;;
47896;SDS011;39629;51.400;5.494;2023-05-29T22:22:28;5.68;;;1.10;;
47896;SDS011;39629;51.400;5.494;2023-05-29T22:27:34;5.32;;;1.23;;
47896;SDS011;39629;51.400;5.494;2023-05-29T22:32:35;7.80;;;1.30;;
47896;SDS011;39629;51.400;5.494;2023-05-29T22:37:38;4.60;;;1.40;;
47896;SDS011;39629;51.400;5.494;2023-05-29T22:42:41;4.65;;;1.20;;
47896;SDS011;39629;51.400;5.494;2023-05-29T22:47:42;4.85;;;1.00;;
47896;SDS011;39629;51.400;5.494;2023-05-29T22:52:44;7.03;;;1.55;;
47896;SDS011;39629;51.400;5.494;2023-05-29T22:57:47;5.30;;;1.15;;
47896;SDS011;39629;51.400;5.494;2023-05-29T23:02:49;5.13;;;1.10;;
47896;SDS011;39629;51.400;5.494;2023-05-29T23:07:51;7.55;;;1.40;;
47896;SDS011;39629;51.400;5.494;2023-05-29T23:12:54;10.43;;;1.40;;
47896;SDS011;39629;51.400;5.494;2023-05-29T23:17:55;5.50;;;1.10;;
47896;SDS011;39629;51.400;5.494;2023-05-29T23:22:57;5.00;;;1.10;;
47896;SDS011;39629;51.400;5.494;2023-05-29T23:28:00;7.45;;;1.50;;
47896;SDS011;39629;51.400;5.494;2023-05-29T23:33:03;4.78;;;1.45;;
47896;SDS011;39629;51.400;5.494;2023-05-29T23:38:04;8.18;;;1.23;;
47896;SDS011;39629;51.400;5.494;2023-05-29T23:43:07;7.53;;;1.17;;
47896;SDS011;39629;51.400;5.494;2023-05-29T23:48:09;12.50;;;1.42;;
47896;SDS011;39629;51.400;5.494;2023-05-29T23:53:11;5.95;;;1.00;;
47896;SDS011;39629;51.400;5.494;2023-05-29T23:58:13;8.00;;;1.23;;
